createdAt,value
2023-08-14T00:00:30.914Z,0.00
2023-08-14T00:01:30.937Z,0.00
2023-08-14T00:02:30.873Z,0.00
2023-08-14T00:03:30.863Z,0.00
2023-08-14T00:04:30.849Z,0.00
2023-08-14T00:05:30.836Z,0.00
2023-08-14T00:06:30.854Z,0.00
2023-08-14T00:07:30.785Z,0.00
2023-08-14T00:08:30.774Z,0.00
2023-08-14T00:09:30.787Z,0.00
2023-08-14T00:10:30.743Z,0.00
2023-08-14T00:11:30.727Z,0.00
2023-08-14T00:12:30.784Z,0.00
2023-08-14T00:13:30.704Z,0.00
2023-08-14T00:14:30.747Z,0.00
2023-08-14T00:15:30.742Z,0.00
2023-08-14T00:16:30.672Z,0.00
2023-08-14T00:17:30.671Z,0.00
2023-08-14T00:18:30.751Z,0.00
2023-08-14T00:19:30.641Z,0.00
2023-08-14T00:20:30.638Z,0.00
2023-08-14T00:21:30.641Z,0.00
2023-08-14T00:22:30.597Z,0.00
2023-08-14T00:23:30.605Z,0.00
2023-08-14T00:24:30.635Z,0.00
2023-08-14T00:25:30.546Z,0.00
2023-08-14T00:26:30.570Z,0.00
2023-08-14T00:27:30.528Z,0.00
2023-08-14T00:28:30.537Z,0.00
2023-08-14T00:29:30.547Z,0.00
2023-08-14T00:30:30.533Z,0.00
2023-08-14T00:31:30.559Z,0.00
2023-08-14T00:32:30.566Z,0.00
2023-08-14T00:33:30.441Z,0.00
2023-08-14T00:34:30.436Z,0.00
2023-08-14T00:35:30.461Z,0.00
2023-08-14T00:36:30.444Z,0.00
2023-08-14T00:37:30.389Z,0.00
2023-08-14T00:38:30.381Z,0.00
2023-08-14T00:39:30.389Z,0.00
2023-08-14T00:40:30.355Z,0.00
2023-08-14T00:41:30.361Z,0.00
2023-08-14T00:42:30.354Z,0.00
2023-08-14T00:43:30.319Z,0.00
2023-08-14T00:44:30.337Z,0.00
2023-08-14T00:45:44.467Z,0.00
2023-08-14T00:46:30.368Z,0.00
2023-08-14T00:47:30.314Z,0.00
2023-08-14T00:48:30.313Z,0.00
2023-08-14T00:49:30.235Z,0.00
2023-08-14T00:50:30.222Z,0.00
2023-08-14T00:51:30.317Z,0.00
2023-08-14T00:52:30.225Z,0.00
2023-08-14T00:53:30.206Z,0.00
2023-08-14T00:54:30.207Z,0.00
2023-08-14T00:55:30.190Z,0.00
2023-08-14T00:56:30.147Z,0.00
2023-08-14T00:57:30.152Z,0.00
2023-08-14T00:58:30.174Z,0.00
2023-08-14T00:59:30.149Z,0.00
2023-08-14T01:00:30.146Z,0.00
2023-08-14T01:01:30.078Z,0.00
2023-08-14T01:02:30.106Z,0.00
2023-08-14T01:03:30.105Z,0.00
2023-08-14T01:04:30.073Z,0.00
2023-08-14T01:05:30.026Z,0.00
2023-08-14T01:06:30.076Z,0.00
2023-08-14T01:07:29.999Z,0.00
2023-08-14T01:08:30.006Z,0.00
2023-08-14T01:09:30.000Z,0.00
2023-08-14T01:10:30.012Z,0.00
2023-08-14T01:11:29.984Z,0.00
2023-08-14T01:12:29.998Z,0.00
2023-08-14T01:13:29.935Z,0.00
2023-08-14T01:14:29.912Z,0.00
2023-08-14T01:15:29.924Z,0.00
2023-08-14T01:16:29.911Z,0.00
2023-08-14T01:17:31.771Z,0.00
2023-08-14T01:18:29.892Z,0.00
2023-08-14T01:19:29.890Z,0.00
2023-08-14T01:20:29.848Z,0.00
2023-08-14T01:21:29.852Z,0.00
2023-08-14T01:22:29.849Z,0.00
2023-08-14T01:23:29.817Z,0.00
2023-08-14T01:24:29.817Z,0.00
2023-08-14T01:25:29.807Z,0.00
2023-08-14T01:26:29.763Z,0.00
2023-08-14T01:27:29.743Z,0.00
2023-08-14T01:28:29.741Z,0.00
2023-08-14T01:29:29.718Z,0.00
2023-08-14T01:30:29.784Z,0.00
2023-08-14T01:31:29.728Z,0.00
2023-08-14T01:32:29.738Z,0.00
2023-08-14T01:33:29.696Z,0.00
2023-08-14T01:34:29.668Z,0.00
2023-08-14T01:35:29.648Z,0.00
2023-08-14T01:36:29.706Z,0.00
2023-08-14T01:37:29.640Z,0.00
2023-08-14T01:38:29.611Z,0.00
2023-08-14T01:39:29.593Z,0.00
2023-08-14T01:40:29.623Z,0.00
2023-08-14T01:41:29.638Z,0.00
2023-08-14T01:42:29.594Z,0.00
2023-08-14T01:43:29.559Z,0.00
2023-08-14T01:44:29.561Z,0.00
2023-08-14T01:45:29.550Z,0.00
2023-08-14T01:46:29.529Z,0.00
2023-08-14T01:47:29.525Z,0.00
2023-08-14T01:48:29.502Z,0.00
2023-08-14T01:49:29.477Z,0.00
2023-08-14T01:50:29.472Z,0.00
2023-08-14T01:51:29.453Z,0.00
2023-08-14T01:52:29.425Z,0.00
2023-08-14T01:53:29.434Z,0.00
2023-08-14T01:54:29.432Z,0.00
2023-08-14T01:55:29.387Z,0.00
2023-08-14T01:56:29.392Z,0.00
2023-08-14T01:57:29.353Z,0.00
2023-08-14T01:58:29.353Z,0.00
2023-08-14T01:59:29.331Z,0.00
2023-08-14T02:00:29.351Z,0.00
2023-08-14T02:01:29.340Z,0.00
2023-08-14T02:02:29.376Z,0.00
2023-08-14T02:03:29.438Z,0.00
2023-08-14T02:04:29.300Z,0.00
2023-08-14T02:05:29.272Z,0.00
2023-08-14T02:06:29.306Z,0.00
2023-08-14T02:07:29.220Z,0.00
2023-08-14T02:08:29.212Z,0.00
2023-08-14T02:09:29.206Z,0.00
2023-08-14T02:10:29.205Z,0.00
2023-08-14T02:11:29.194Z,0.00
2023-08-14T02:12:29.196Z,0.00
2023-08-14T02:13:29.151Z,0.00
2023-08-14T02:14:29.141Z,0.00
2023-08-14T02:15:29.144Z,0.00
2023-08-14T02:16:29.182Z,0.00
2023-08-14T02:17:29.106Z,0.00
2023-08-14T02:18:29.148Z,0.00
2023-08-14T02:19:29.110Z,0.00
2023-08-14T02:20:29.089Z,0.00
2023-08-14T02:21:29.085Z,0.00
2023-08-14T02:22:29.055Z,0.00
2023-08-14T02:23:29.027Z,0.00
2023-08-14T02:24:29.060Z,0.00
2023-08-14T02:25:29.016Z,0.00
2023-08-14T02:26:29.001Z,0.00
2023-08-14T02:27:28.970Z,0.00
2023-08-14T02:28:28.955Z,0.00
2023-08-14T02:29:28.971Z,0.00
2023-08-14T02:30:28.989Z,0.00
2023-08-14T02:31:28.984Z,0.00
2023-08-14T02:32:28.927Z,0.00
2023-08-14T02:33:28.931Z,0.00
2023-08-14T02:34:28.882Z,0.00
2023-08-14T02:35:28.866Z,0.00
2023-08-14T02:36:28.923Z,0.00
2023-08-14T02:37:28.836Z,0.00
2023-08-14T02:38:28.830Z,0.00
2023-08-14T02:39:28.818Z,0.00
2023-08-14T02:40:28.803Z,0.00
2023-08-14T02:41:28.802Z,0.00
2023-08-14T02:42:28.832Z,0.00
2023-08-14T02:43:28.759Z,0.00
2023-08-14T02:44:28.768Z,0.00
2023-08-14T02:45:28.773Z,0.00
2023-08-14T02:46:28.716Z,0.00
2023-08-14T02:47:28.795Z,0.00
2023-08-14T02:48:28.720Z,0.00
2023-08-14T02:49:28.678Z,0.00
2023-08-14T02:50:28.677Z,0.00
2023-08-14T02:51:28.647Z,0.00
2023-08-14T02:52:28.638Z,0.00
2023-08-14T02:53:28.648Z,0.00
2023-08-14T02:54:28.636Z,0.00
2023-08-14T02:55:28.622Z,0.00
2023-08-14T02:56:28.581Z,0.00
2023-08-14T02:57:28.563Z,0.00
2023-08-14T02:58:28.568Z,0.00
2023-08-14T02:59:28.553Z,0.00
2023-08-14T03:00:28.584Z,0.00
2023-08-14T03:01:28.536Z,0.00
2023-08-14T03:02:28.639Z,0.00
2023-08-14T03:03:28.553Z,0.00
2023-08-14T03:04:28.508Z,0.00
2023-08-14T03:05:28.485Z,0.00
2023-08-14T03:06:28.511Z,0.00
2023-08-14T03:07:28.434Z,0.00
2023-08-14T03:08:28.428Z,0.00
2023-08-14T03:09:28.448Z,0.00
2023-08-14T03:10:28.420Z,0.00
2023-08-14T03:11:28.387Z,0.00
2023-08-14T03:12:28.419Z,0.00
2023-08-14T03:13:28.395Z,0.00
2023-08-14T03:14:28.417Z,0.00
2023-08-14T03:15:28.352Z,0.00
2023-08-14T03:16:28.387Z,0.00
2023-08-14T03:17:28.338Z,0.00
2023-08-14T03:18:28.338Z,0.00
2023-08-14T03:19:28.312Z,0.00
2023-08-14T03:20:28.302Z,0.00
2023-08-14T03:21:28.279Z,0.00
2023-08-14T03:22:28.258Z,0.00
2023-08-14T03:23:28.266Z,0.00
2023-08-14T03:24:28.265Z,0.00
2023-08-14T03:25:28.209Z,0.00
2023-08-14T03:26:28.227Z,0.00
2023-08-14T03:27:28.184Z,0.00
2023-08-14T03:28:28.193Z,0.00
2023-08-14T03:29:28.179Z,0.00
2023-08-14T03:30:28.176Z,0.00
2023-08-14T03:31:28.140Z,0.00
2023-08-14T03:32:28.125Z,0.00
2023-08-14T03:33:28.117Z,0.00
2023-08-14T03:34:28.115Z,0.00
2023-08-14T03:35:28.070Z,0.00
2023-08-14T03:36:28.106Z,0.00
2023-08-14T03:37:28.062Z,0.00
2023-08-14T03:38:28.065Z,0.00
2023-08-14T03:39:28.027Z,0.00
2023-08-14T03:40:28.035Z,0.00
2023-08-14T03:41:28.028Z,0.00
2023-08-14T03:42:28.016Z,0.00
2023-08-14T03:43:28.007Z,0.00
2023-08-14T03:44:27.980Z,4.00
2023-08-14T03:45:27.970Z,4.00
2023-08-14T03:46:27.984Z,4.00
2023-08-14T03:47:27.966Z,0.00
2023-08-14T03:48:27.959Z,4.00
2023-08-14T03:49:27.922Z,4.00
2023-08-14T03:50:27.912Z,4.00
2023-08-14T03:51:27.863Z,4.00
2023-08-14T03:52:27.851Z,4.00
2023-08-14T03:53:27.873Z,4.00
2023-08-14T03:54:27.861Z,8.00
2023-08-14T03:55:27.812Z,8.00
2023-08-14T03:56:27.829Z,12.00
2023-08-14T03:57:27.809Z,12.00
2023-08-14T03:58:27.801Z,12.00
2023-08-14T03:59:27.766Z,16.00
2023-08-14T04:00:27.814Z,16.00
2023-08-14T04:01:27.763Z,24.00
2023-08-14T04:02:27.804Z,28.00
2023-08-14T04:03:27.791Z,28.00
2023-08-14T04:04:27.706Z,32.00
2023-08-14T04:05:27.691Z,36.00
2023-08-14T04:06:27.768Z,44.00
2023-08-14T04:07:27.663Z,48.00
2023-08-14T04:08:27.687Z,56.00
2023-08-14T04:09:27.637Z,72.00
2023-08-14T04:10:27.660Z,88.00
2023-08-14T04:11:27.632Z,104.00
2023-08-14T04:12:27.656Z,116.00
2023-08-14T04:13:27.614Z,128.00
2023-08-14T04:14:27.581Z,140.00
2023-08-14T04:15:27.573Z,156.00
2023-08-14T04:16:27.613Z,176.00
2023-08-14T04:17:27.525Z,188.00
2023-08-14T04:18:27.586Z,204.00
2023-08-14T04:19:27.528Z,216.00
2023-08-14T04:20:27.523Z,224.00
2023-08-14T04:21:27.482Z,236.00
2023-08-14T04:22:27.463Z,248.00
2023-08-14T04:23:27.445Z,260.00
2023-08-14T04:24:27.469Z,272.00
2023-08-14T04:25:27.445Z,288.00
2023-08-14T04:26:27.442Z,300.00
2023-08-14T04:27:27.394Z,300.00
2023-08-14T04:28:27.412Z,292.00
2023-08-14T04:29:27.392Z,280.00
2023-08-14T04:30:27.404Z,268.00
2023-08-14T04:31:27.405Z,248.00
2023-08-14T04:32:27.375Z,240.00
2023-08-14T04:33:27.350Z,240.00
2023-08-14T04:34:27.339Z,240.00
2023-08-14T04:35:28.643Z,252.00
2023-08-14T04:36:27.319Z,264.00
2023-08-14T04:37:27.269Z,280.00
2023-08-14T04:38:27.279Z,296.00
2023-08-14T04:39:27.253Z,312.00
2023-08-14T04:40:27.261Z,324.00
2023-08-14T04:41:27.217Z,336.00
2023-08-14T04:42:27.260Z,352.00
2023-08-14T04:43:27.187Z,364.00
2023-08-14T04:44:27.182Z,380.00
2023-08-14T04:45:27.192Z,404.00
2023-08-14T04:46:27.214Z,424.00
2023-08-14T04:47:27.273Z,452.00
2023-08-14T04:48:27.239Z,480.00
2023-08-14T04:49:27.126Z,508.00
2023-08-14T04:50:27.110Z,548.00
2023-08-14T04:51:27.088Z,584.00
2023-08-14T04:52:27.073Z,616.00
2023-08-14T04:53:27.094Z,644.00
2023-08-14T04:54:27.124Z,664.00
2023-08-14T04:55:27.043Z,680.00
2023-08-14T04:56:27.026Z,688.00
2023-08-14T04:57:27.044Z,696.00
2023-08-14T04:58:27.023Z,732.00
2023-08-14T04:59:26.983Z,788.00
2023-08-14T05:00:27.080Z,836.00
2023-08-14T05:01:27.085Z,872.00
2023-08-14T05:02:26.966Z,928.00
2023-08-14T05:03:26.930Z,1000.00
2023-08-14T05:04:26.943Z,1076.00
2023-08-14T05:05:26.924Z,1160.00
2023-08-14T05:06:26.958Z,1268.00
2023-08-14T05:07:27.858Z,1412.00
2023-08-14T05:08:26.866Z,1576.00
2023-08-14T05:09:27.980Z,1756.00
2023-08-14T05:10:26.859Z,1924.00
2023-08-14T05:11:26.829Z,2092.00
2023-08-14T05:12:26.850Z,2288.00
2023-08-14T05:13:26.819Z,2536.00
2023-08-14T05:14:26.817Z,2772.00
2023-08-14T05:15:26.801Z,2932.00
2023-08-14T05:16:26.839Z,3068.00
2023-08-14T05:17:26.791Z,3192.00
2023-08-14T05:18:26.773Z,3308.00
2023-08-14T05:19:26.726Z,3384.00
2023-08-14T05:20:26.743Z,3444.00
2023-08-14T05:21:26.724Z,3524.00
2023-08-14T05:22:26.694Z,3580.00
2023-08-14T05:23:26.701Z,3620.00
2023-08-14T05:24:26.701Z,3636.00
2023-08-14T05:25:26.682Z,3688.00
2023-08-14T05:26:26.646Z,3796.00
2023-08-14T05:27:26.650Z,3936.00
2023-08-14T05:28:26.660Z,4116.00
2023-08-14T05:29:26.603Z,4348.00
2023-08-14T05:30:26.633Z,4596.00
2023-08-14T05:31:26.600Z,4868.00
2023-08-14T05:32:26.587Z,5168.00
2023-08-14T05:33:26.550Z,5372.00
2023-08-14T05:34:26.528Z,5484.00
2023-08-14T05:35:26.545Z,5532.00
2023-08-14T05:36:26.593Z,5560.00
2023-08-14T05:37:26.498Z,5516.00
2023-08-14T05:38:26.483Z,5424.00
2023-08-14T05:39:26.496Z,5236.00
2023-08-14T05:40:26.457Z,5044.00
2023-08-14T05:41:26.570Z,4884.00
2023-08-14T05:42:26.518Z,4776.00
2023-08-14T05:43:26.458Z,4656.00
2023-08-14T05:44:26.428Z,4576.00
2023-08-14T05:45:26.412Z,4520.00
2023-08-14T05:46:26.399Z,4464.00
2023-08-14T05:47:26.476Z,4396.00
2023-08-14T05:48:26.396Z,4320.00
2023-08-14T05:49:26.375Z,4252.00
2023-08-14T05:50:26.357Z,4228.00
2023-08-14T05:51:26.316Z,4252.00
2023-08-14T05:52:26.296Z,4276.00
2023-08-14T05:53:26.308Z,4288.00
2023-08-14T05:54:26.329Z,4304.00
2023-08-14T05:55:26.259Z,4304.00
2023-08-14T05:56:26.294Z,4280.00
2023-08-14T05:57:26.237Z,4296.00
2023-08-14T05:58:26.253Z,4332.00
2023-08-14T05:59:26.239Z,4368.00
2023-08-14T06:00:26.246Z,4428.00
2023-08-14T06:01:26.248Z,4484.00
2023-08-14T06:02:26.196Z,4556.00
2023-08-14T06:03:41.952Z,4632.00
2023-08-14T06:04:26.249Z,4732.00
2023-08-14T06:05:26.148Z,4848.00
2023-08-14T06:06:26.200Z,4980.00
2023-08-14T06:07:26.112Z,5176.00
2023-08-14T06:08:26.140Z,5352.00
2023-08-14T06:09:26.122Z,5524.00
2023-08-14T06:10:26.082Z,6032.00
2023-08-14T06:11:26.121Z,6492.00
2023-08-14T06:12:26.081Z,5972.00
2023-08-14T06:13:26.070Z,6884.00
2023-08-14T06:14:26.078Z,6356.00
2023-08-14T06:15:26.041Z,6788.00
2023-08-14T06:16:26.016Z,7100.00
2023-08-14T06:17:26.037Z,7776.00
2023-08-14T06:18:26.020Z,7928.00
2023-08-14T06:19:25.972Z,8212.00
2023-08-14T06:20:25.943Z,8316.00
2023-08-14T06:21:25.990Z,7228.00
2023-08-14T06:22:25.911Z,8152.00
2023-08-14T06:23:25.924Z,8736.00
2023-08-14T06:24:25.920Z,8856.00
2023-08-14T06:25:25.907Z,9360.00
2023-08-14T06:26:25.858Z,9612.00
2023-08-14T06:27:25.900Z,9668.00
2023-08-14T06:28:25.862Z,9756.00
2023-08-14T06:29:25.828Z,10348.00
2023-08-14T06:30:25.851Z,10892.00
2023-08-14T06:31:25.857Z,11356.00
2023-08-14T06:32:25.822Z,11348.00
2023-08-14T06:33:25.780Z,11844.00
2023-08-14T06:34:25.771Z,12128.00
2023-08-14T06:35:25.775Z,12576.00
2023-08-14T06:36:25.781Z,13044.00
2023-08-14T06:37:25.720Z,13504.00
2023-08-14T06:38:25.742Z,13504.00
2023-08-14T06:39:25.718Z,13952.00
2023-08-14T06:40:25.713Z,13856.00
2023-08-14T06:41:25.695Z,13824.00
2023-08-14T06:42:25.724Z,13824.00
2023-08-14T06:43:25.674Z,13792.00
2023-08-14T06:44:25.655Z,13728.00
2023-08-14T06:45:25.651Z,13400.00
2023-08-14T06:46:25.647Z,12592.00
2023-08-14T06:47:25.693Z,12232.00
2023-08-14T06:48:25.618Z,14432.00
2023-08-14T06:49:25.601Z,13924.00
2023-08-14T06:50:25.574Z,14144.00
2023-08-14T06:51:25.580Z,14532.00
2023-08-14T06:52:25.544Z,16000.00
2023-08-14T06:53:25.521Z,17216.00
2023-08-14T06:54:25.589Z,16512.00
2023-08-14T06:55:25.503Z,17504.00
2023-08-14T06:56:25.508Z,16512.00
2023-08-14T06:57:25.510Z,16320.00
2023-08-14T06:58:25.459Z,16192.00
2023-08-14T06:59:25.468Z,15520.00
2023-08-14T07:00:25.467Z,13104.00
2023-08-14T07:01:25.425Z,12836.00
2023-08-14T07:02:25.409Z,13384.00
2023-08-14T07:03:25.528Z,13124.00
2023-08-14T07:04:25.395Z,13836.00
2023-08-14T07:05:25.399Z,13648.00
2023-08-14T07:06:25.420Z,13444.00
2023-08-14T07:07:25.355Z,13564.00
2023-08-14T07:08:25.347Z,13624.00
2023-08-14T07:09:25.322Z,14188.00
2023-08-14T07:10:25.314Z,14336.00
2023-08-14T07:11:25.307Z,14960.00
2023-08-14T07:12:25.349Z,15968.00
2023-08-14T07:13:25.348Z,16128.00
2023-08-14T07:14:30.570Z,17376.00
2023-08-14T07:15:25.269Z,17376.00
2023-08-14T07:16:25.283Z,17824.00
2023-08-14T07:17:25.260Z,15332.00
2023-08-14T07:18:25.257Z,16160.00
2023-08-14T07:19:25.225Z,16096.00
2023-08-14T07:20:26.456Z,15904.00
2023-08-14T07:21:25.201Z,16096.00
2023-08-14T07:22:25.878Z,17440.00
2023-08-14T07:23:25.174Z,30336.00
2023-08-14T07:24:25.173Z,47104.00
2023-08-14T07:25:25.174Z,49024.00
2023-08-14T07:26:25.123Z,49056.00
2023-08-14T07:27:25.124Z,49568.00
2023-08-14T07:28:25.094Z,49728.00
2023-08-14T07:29:25.079Z,49536.00
2023-08-14T07:30:25.334Z,49312.00
2023-08-14T07:31:25.107Z,49312.00
2023-08-14T07:32:25.092Z,46912.00
2023-08-14T07:33:25.028Z,49344.00
2023-08-14T07:34:25.030Z,39488.00
2023-08-14T07:35:25.049Z,44864.00
2023-08-14T07:36:25.074Z,32416.00
2023-08-14T07:37:25.006Z,40448.00
2023-08-14T07:38:25.007Z,27584.00
2023-08-14T07:39:25.011Z,33120.00
2023-08-14T07:40:24.976Z,51744.00
2023-08-14T07:41:24.950Z,52864.00
2023-08-14T07:42:24.983Z,52832.00
2023-08-14T07:43:24.959Z,37408.00
2023-08-14T07:44:24.912Z,25888.00
2023-08-14T07:45:24.954Z,26752.00
2023-08-14T07:46:25.004Z,23040.00
2023-08-14T07:47:24.924Z,32416.00
2023-08-14T07:48:24.900Z,28704.00
2023-08-14T07:49:24.878Z,26240.00
2023-08-14T07:50:24.935Z,50304.00
2023-08-14T07:51:24.836Z,55872.00
2023-08-14T07:52:24.833Z,57152.00
2023-08-14T07:53:24.831Z,60704.00
2023-08-14T07:54:24.873Z,61248.00
2023-08-14T07:55:24.849Z,62848.00
2023-08-14T07:56:24.787Z,36064.00
2023-08-14T07:57:24.802Z,33120.00
2023-08-14T07:58:24.792Z,37568.00
2023-08-14T07:59:24.758Z,31936.00
2023-08-14T08:00:24.848Z,22176.00
2023-08-14T08:01:24.754Z,17280.00
2023-08-14T08:02:25.033Z,16736.00
2023-08-14T08:03:24.714Z,17984.00
2023-08-14T08:04:27.147Z,17728.00
2023-08-14T08:05:24.704Z,20832.00
2023-08-14T08:06:24.724Z,35424.00
2023-08-14T08:07:25.789Z,29888.00
2023-08-14T08:08:24.689Z,20192.00
2023-08-14T08:09:24.652Z,18720.00
2023-08-14T08:10:24.687Z,16256.00
2023-08-14T08:11:24.649Z,14704.00
2023-08-14T08:12:24.640Z,12420.00
2023-08-14T08:13:24.605Z,11468.00
2023-08-14T08:14:24.582Z,11216.00
2023-08-14T08:15:24.599Z,11172.00
2023-08-14T08:16:24.567Z,11092.00
2023-08-14T08:17:25.143Z,10904.00
2023-08-14T08:18:24.574Z,11040.00
2023-08-14T08:19:24.532Z,11440.00
2023-08-14T08:21:24.561Z,15408.00
2023-08-14T08:22:24.520Z,24352.00
2023-08-14T08:23:24.526Z,17568.00
2023-08-14T08:24:24.519Z,15724.00
2023-08-14T08:25:24.459Z,19456.00
2023-08-14T08:26:24.433Z,23616.00
2023-08-14T08:27:24.471Z,41312.00
2023-08-14T08:28:24.433Z,38880.00
2023-08-14T08:29:24.407Z,50720.00
2023-08-14T08:30:24.414Z,57824.00
2023-08-14T08:31:24.428Z,71744.00
2023-08-14T08:32:24.386Z,72064.00
2023-08-14T08:33:27.889Z,69952.00
2023-08-14T08:34:24.350Z,68320.00
2023-08-14T08:35:24.446Z,68416.00
2023-08-14T08:36:24.371Z,69536.00
2023-08-14T08:37:24.343Z,69536.00
2023-08-14T08:38:24.318Z,70816.00
2023-08-14T08:39:24.310Z,72064.00
2023-08-14T08:40:24.586Z,71584.00
2023-08-14T08:41:24.296Z,66592.00
2023-08-14T08:42:24.385Z,72064.00
2023-08-14T08:43:24.308Z,64864.00
2023-08-14T08:44:24.363Z,51968.00
2023-08-14T08:45:24.281Z,37152.00
2023-08-14T08:46:24.300Z,35360.00
2023-08-14T08:47:24.273Z,37056.00
2023-08-14T08:48:24.299Z,40768.00
2023-08-14T08:49:24.228Z,40608.00
2023-08-14T08:50:24.220Z,69152.00
2023-08-14T08:51:24.212Z,70816.00
2023-08-14T08:52:24.272Z,73088.00
2023-08-14T08:53:24.193Z,73120.00
2023-08-14T08:54:24.250Z,73280.00
2023-08-14T08:55:24.327Z,60736.00
2023-08-14T08:56:24.175Z,72832.00
2023-08-14T08:57:24.263Z,76288.00
2023-08-14T08:58:24.125Z,57376.00
2023-08-14T08:59:24.175Z,33984.00
2023-08-14T09:00:25.844Z,26688.00
2023-08-14T09:01:24.135Z,29472.00
2023-08-14T09:02:24.329Z,47136.00
2023-08-14T09:03:24.169Z,28672.00
2023-08-14T09:04:24.148Z,78464.00
2023-08-14T09:05:24.126Z,72480.00
2023-08-14T09:06:24.116Z,83200.00
2023-08-14T09:07:24.071Z,81216.00
2023-08-14T09:08:24.061Z,78304.00
2023-08-14T09:09:24.034Z,81760.00
2023-08-14T09:10:24.029Z,89216.00
2023-08-14T09:11:24.041Z,92000.00
2023-08-14T09:12:24.057Z,92992.00
2023-08-14T09:13:31.541Z,93664.00
2023-08-14T09:14:24.008Z,93248.00
2023-08-14T09:15:24.022Z,93792.00
2023-08-14T09:16:24.048Z,95008.00
2023-08-14T09:17:24.237Z,94400.00
2023-08-14T09:18:23.992Z,94496.00
2023-08-14T09:19:24.020Z,95520.00
2023-08-14T09:20:29.842Z,94112.00
2023-08-14T09:21:23.960Z,95008.00
2023-08-14T09:22:23.976Z,94368.00
2023-08-14T09:23:24.064Z,91040.00
2023-08-14T09:24:23.948Z,90784.00
2023-08-14T09:25:23.932Z,89568.00
2023-08-14T09:26:23.962Z,88640.00
2023-08-14T09:27:23.905Z,89824.00
2023-08-14T09:28:23.906Z,87264.00
2023-08-14T09:29:23.971Z,78016.00
2023-08-14T09:30:23.960Z,73984.00
2023-08-14T09:31:23.868Z,72544.00
2023-08-14T09:32:23.892Z,61216.00
2023-08-14T09:33:23.910Z,66304.00
2023-08-14T09:34:23.867Z,59040.00
2023-08-14T09:35:23.862Z,68640.00
2023-08-14T09:36:23.896Z,71936.00
2023-08-14T09:37:23.885Z,74560.00
2023-08-14T09:38:23.822Z,74464.00
2023-08-14T09:39:23.832Z,75616.00
2023-08-14T09:40:23.863Z,75840.00
2023-08-14T09:41:23.816Z,76352.00
2023-08-14T09:42:23.835Z,74400.00
2023-08-14T09:43:23.814Z,74944.00
2023-08-14T09:44:23.808Z,76160.00
2023-08-14T09:45:23.795Z,76480.00
2023-08-14T09:46:23.864Z,75200.00
2023-08-14T09:47:24.030Z,75424.00
2023-08-14T09:48:23.868Z,75648.00
2023-08-14T09:49:23.800Z,75872.00
2023-08-14T09:50:23.761Z,74496.00
2023-08-14T09:51:23.739Z,74400.00
2023-08-14T09:52:23.737Z,73824.00
2023-08-14T09:53:23.742Z,72224.00
2023-08-14T09:54:27.333Z,73056.00
2023-08-14T09:55:23.753Z,75488.00
2023-08-14T09:56:23.750Z,77632.00
2023-08-14T09:57:26.361Z,77952.00
2023-08-14T09:58:23.767Z,75488.00
2023-08-14T09:59:23.679Z,76544.00
2023-08-14T10:00:23.748Z,75936.00
2023-08-14T10:01:23.926Z,74784.00
2023-08-14T10:02:23.824Z,74752.00
2023-08-14T10:03:23.679Z,75520.00
2023-08-14T10:04:23.662Z,75488.00
2023-08-14T10:05:23.652Z,73216.00
2023-08-14T10:06:23.660Z,74176.00
2023-08-14T10:07:23.747Z,74848.00
2023-08-14T10:08:23.652Z,75328.00
2023-08-14T10:09:23.637Z,75968.00
2023-08-14T10:10:23.647Z,74592.00
2023-08-14T10:11:23.608Z,73568.00
2023-08-14T10:12:23.658Z,70816.00
2023-08-14T10:13:23.665Z,70496.00
2023-08-14T10:14:23.578Z,71584.00
2023-08-14T10:15:23.625Z,71456.00
2023-08-14T10:16:23.621Z,72384.00
2023-08-14T10:17:23.570Z,74656.00
2023-08-14T10:18:23.612Z,74432.00
2023-08-14T10:19:23.573Z,75200.00
2023-08-14T10:20:23.567Z,75392.00
2023-08-14T10:21:23.529Z,74656.00
2023-08-14T10:22:23.579Z,74720.00
2023-08-14T10:23:23.536Z,76640.00
2023-08-14T10:24:23.540Z,77088.00
2023-08-14T10:25:23.546Z,76704.00
2023-08-14T10:26:25.977Z,77216.00
2023-08-14T10:27:23.522Z,78336.00
2023-08-14T10:28:23.559Z,78624.00
2023-08-14T10:29:23.480Z,78784.00
2023-08-14T10:30:23.500Z,78592.00
2023-08-14T10:31:23.495Z,76224.00
2023-08-14T10:32:23.495Z,75232.00
2023-08-14T10:33:23.479Z,74304.00
2023-08-14T10:34:23.465Z,76352.00
2023-08-14T10:35:23.460Z,77376.00
2023-08-14T10:36:23.459Z,76384.00
2023-08-14T10:37:23.451Z,77824.00
2023-08-14T10:38:25.255Z,78176.00
2023-08-14T10:40:23.439Z,78400.00
2023-08-14T10:41:23.389Z,79264.00
2023-08-14T10:42:23.419Z,79232.00
2023-08-14T10:43:23.470Z,79648.00
2023-08-14T10:44:23.369Z,78560.00
2023-08-14T10:45:23.362Z,77824.00
2023-08-14T10:46:23.390Z,79680.00
2023-08-14T10:47:23.526Z,80992.00
2023-08-14T10:48:23.418Z,80320.00
2023-08-14T10:49:23.466Z,79680.00
2023-08-14T10:50:23.336Z,78752.00
2023-08-14T10:51:23.360Z,77536.00
2023-08-14T10:52:23.372Z,76640.00
2023-08-14T10:53:23.308Z,78112.00
2023-08-14T10:54:23.383Z,79392.00
2023-08-14T10:55:23.364Z,80544.00
2023-08-14T10:56:23.306Z,82624.00
2023-08-14T10:57:23.319Z,81792.00
2023-08-14T10:58:23.291Z,80576.00
2023-08-14T10:59:23.893Z,80768.00
2023-08-14T11:00:23.300Z,80768.00
2023-08-14T11:01:23.334Z,82688.00
2023-08-14T11:02:23.272Z,83936.00
2023-08-14T11:03:23.266Z,83328.00
2023-08-14T11:04:23.368Z,82048.00
2023-08-14T11:05:25.580Z,82400.00
2023-08-14T11:06:23.257Z,82720.00
2023-08-14T11:07:23.308Z,81824.00
2023-08-14T11:08:23.238Z,81408.00
2023-08-14T11:09:23.261Z,82624.00
2023-08-14T11:10:23.299Z,84544.00
2023-08-14T11:11:23.207Z,85376.00
2023-08-14T11:12:23.232Z,81824.00
2023-08-14T11:13:23.193Z,77344.00
2023-08-14T11:14:23.172Z,75168.00
2023-08-14T11:15:23.196Z,81312.00
2023-08-14T11:16:23.276Z,83232.00
2023-08-14T11:17:23.195Z,80352.00
2023-08-14T11:18:23.162Z,79200.00
2023-08-14T11:19:23.136Z,77408.00
2023-08-14T11:20:23.186Z,78176.00
2023-08-14T11:21:31.537Z,56544.00
2023-08-14T11:22:23.147Z,57344.00
2023-08-14T11:23:23.133Z,52640.00
2023-08-14T11:24:23.171Z,70272.00
2023-08-14T11:25:23.104Z,75360.00
2023-08-14T11:26:23.080Z,84256.00
2023-08-14T11:27:23.093Z,87168.00
2023-08-14T11:28:23.083Z,85792.00
2023-08-14T11:29:23.076Z,80768.00
2023-08-14T11:30:26.417Z,79456.00
2023-08-14T11:31:30.853Z,80576.00
2023-08-14T11:32:23.714Z,83424.00
2023-08-14T11:33:23.055Z,82336.00
2023-08-14T11:34:23.026Z,80864.00
2023-08-14T11:36:24.136Z,71904.00
2023-08-14T11:37:23.198Z,66784.00
2023-08-14T11:38:22.998Z,73216.00
2023-08-14T11:39:23.020Z,80320.00
2023-08-14T11:40:22.976Z,81056.00
2023-08-14T11:41:31.303Z,79328.00
2023-08-14T11:42:23.331Z,81920.00
2023-08-14T11:43:22.956Z,83136.00
2023-08-14T11:44:22.950Z,83264.00
2023-08-14T11:45:23.031Z,81760.00
2023-08-14T11:46:22.930Z,80096.00
2023-08-14T11:47:23.004Z,77280.00
2023-08-14T11:48:23.008Z,77984.00
2023-08-14T11:49:22.931Z,81568.00
2023-08-14T11:50:22.987Z,80704.00
2023-08-14T11:51:22.900Z,80128.00
2023-08-14T11:52:24.152Z,80448.00
2023-08-14T11:53:22.910Z,81280.00
2023-08-14T11:54:23.861Z,72448.00
2023-08-14T11:55:22.892Z,75392.00
2023-08-14T11:56:22.890Z,81184.00
2023-08-14T11:57:22.845Z,81440.00
2023-08-14T11:58:22.861Z,82752.00
2023-08-14T11:59:22.860Z,84992.00
2023-08-14T12:00:30.174Z,84992.00
2023-08-14T12:01:22.899Z,83616.00
2023-08-14T12:02:22.886Z,84128.00
2023-08-14T12:03:22.881Z,85024.00
2023-08-14T12:04:22.828Z,86400.00
2023-08-14T12:05:22.866Z,84736.00
2023-08-14T12:06:22.837Z,83552.00
2023-08-14T12:07:22.804Z,83072.00
2023-08-14T12:08:22.803Z,82816.00
2023-08-14T12:09:22.777Z,80832.00
2023-08-14T12:10:22.781Z,79680.00
2023-08-14T12:11:22.777Z,80160.00
2023-08-14T12:12:23.210Z,79712.00
2023-08-14T12:13:22.726Z,79040.00
2023-08-14T12:14:22.747Z,78496.00
2023-08-14T12:15:24.255Z,78368.00
2023-08-14T12:16:23.045Z,78176.00
2023-08-14T12:17:22.795Z,76736.00
2023-08-14T12:18:22.738Z,76256.00
2023-08-14T12:19:22.782Z,76896.00
2023-08-14T12:20:22.708Z,75968.00
2023-08-14T12:21:22.689Z,76288.00
2023-08-14T12:22:22.724Z,76736.00